sensor_id;sensor_type;location;lat;lon;timestamp;pressure;altitude;pressure_sealevel;temperature;humidity
60611;BME280;46439;51.164;13.572;2024-01-11T00:01:09;101666.05;;;-4.12;0.00
60611;BME280;46439;51.164;13.572;2024-01-11T00:03:40;101669.37;;;-4.11;0.00
60611;BME280;46439;51.164;13.572;2024-01-11T00:06:08;101670.92;;;-4.17;0.00
60611;BME280;46439;51.164;13.572;2024-01-11T00:08:36;101666.71;;;-4.17;0.00
60611;BME280;46439;51.164;13.572;2024-01-11T00:11:05;101665.33;;;-4.11;0.00
60611;BME280;46439;51.164;13.572;2024-01-11T00:13:33;101663.02;;;-4.04;0.00
60611;BME280;46439;51.164;13.572;2024-01-11T00:16:01;101662.88;;;-4.06;0.00
60611;BME280;46439;51.164;13.572;2024-01-11T00:18:30;101661.42;;;-4.10;0.00
60611;BME280;46439;51.164;13.572;2024-01-11T00:20:59;101661.27;;;-4.17;0.00
60611;BME280;46439;51.164;13.572;2024-01-11T00:23:27;101661.70;;;-4.20;0.00
60611;BME280;46439;51.164;13.572;2024-01-11T00:25:56;101655.93;;;-4.21;0.00
60611;BME280;46439;51.164;13.572;2024-01-11T00:28:24;101647.59;;;-4.18;0.00
60611;BME280;46439;51.164;13.572;2024-01-11T00:30:52;101644.05;;;-4.17;0.00
60611;BME280;46439;51.164;13.572;2024-01-11T00:33:21;101643.00;;;-4.18;0.00
60611;BME280;46439;51.164;13.572;2024-01-11T00:35:49;101644.48;;;-4.14;0.00
60611;BME280;46439;51.164;13.572;2024-01-11T00:38:17;101645.67;;;-4.13;0.00
60611;BME280;46439;51.164;13.572;2024-01-11T00:40:46;101643.52;;;-4.18;0.00
60611;BME280;46439;51.164;13.572;2024-01-11T00:43:14;101637.81;;;-4.21;0.00
60611;BME280;46439;51.164;13.572;2024-01-11T00:45:43;101641.42;;;-4.24;0.00
60611;BME280;46439;51.164;13.572;2024-01-11T00:48:11;101644.43;;;-4.32;0.00
60611;BME280;46439;51.164;13.572;2024-01-11T00:50:39;101639.83;;;-4.44;0.00
60611;BME280;46439;51.164;13.572;2024-01-11T00:53:08;101631.61;;;-4.51;0.00
60611;BME280;46439;51.164;13.572;2024-01-11T00:55:37;101621.55;;;-4.49;0.00
60611;BME280;46439;51.164;13.572;2024-01-11T00:58:05;101621.73;;;-4.50;0.00
60611;BME280;46439;51.164;13.572;2024-01-11T01:00:33;101618.45;;;-4.52;0.00
60611;BME280;46439;51.164;13.572;2024-01-11T01:03:02;101612.85;;;-4.46;0.00
60611;BME280;46439;51.164;13.572;2024-01-11T01:05:30;101614.38;;;-4.38;0.00
60611;BME280;46439;51.164;13.572;2024-01-11T01:07:58;101609.20;;;-4.35;0.00
60611;BME280;46439;51.164;13.572;2024-01-11T01:10:26;101604.90;;;-4.38;0.00
60611;BME280;46439;51.164;13.572;2024-01-11T01:12:54;101603.90;;;-4.40;0.00
60611;BME280;46439;51.164;13.572;2024-01-11T01:15:22;101609.92;;;-4.42;0.00
60611;BME280;46439;51.164;13.572;2024-01-11T01:17:51;101617.34;;;-4.43;0.00
60611;BME280;46439;51.164;13.572;2024-01-11T01:20:20;101619.70;;;-4.47;0.00
60611;BME280;46439;51.164;13.572;2024-01-11T01:22:48;101619.40;;;-4.55;0.00
60611;BME280;46439;51.164;13.572;2024-01-11T01:25:16;101625.15;;;-4.66;0.00
60611;BME280;46439;51.164;13.572;2024-01-11T01:27:44;101631.83;;;-4.73;0.00
60611;BME280;46439;51.164;13.572;2024-01-11T01:30:13;101639.14;;;-4.85;0.00
60611;BME280;46439;51.164;13.572;2024-01-11T01:32:41;101640.05;;;-5.00;0.00
60611;BME280;46439;51.164;13.572;2024-01-11T01:35:10;101635.91;;;-5.03;0.00
60611;BME280;46439;51.164;13.572;2024-01-11T01:37:38;101635.27;;;-4.98;0.00
60611;BME280;46439;51.164;13.572;2024-01-11T01:40:08;101635.96;;;-4.91;0.00
60611;BME280;46439;51.164;13.572;2024-01-11T01:42:40;101640.81;;;-4.89;0.00
60611;BME280;46439;51.164;13.572;2024-01-11T01:45:09;101637.45;;;-4.87;0.00
60611;BME280;46439;51.164;13.572;2024-01-11T01:47:38;101636.44;;;-4.82;0.00
60611;BME280;46439;51.164;13.572;2024-01-11T01:50:09;101629.36;;;-4.79;0.00
60611;BME280;46439;51.164;13.572;2024-01-11T01:52:40;101626.19;;;-4.79;0.00
60611;BME280;46439;51.164;13.572;2024-01-11T01:55:10;101625.66;;;-4.79;0.00
60611;BME280;46439;51.164;13.572;2024-01-11T01:57:40;101626.09;;;-4.83;0.00
60611;BME280;46439;51.164;13.572;2024-01-11T02:00:12;101633.32;;;-4.84;0.00
60611;BME280;46439;51.164;13.572;2024-01-11T02:02:44;101635.45;;;-4.91;0.00
60611;BME280;46439;51.164;13.572;2024-01-11T02:05:14;101629.27;;;-4.97;0.00
60611;BME280;46439;51.164;13.572;2024-01-11T02:07:44;101627.84;;;-4.90;0.00
60611;BME280;46439;51.164;13.572;2024-01-11T02:10:12;101626.79;;;-4.82;0.00
60611;BME280;46439;51.164;13.572;2024-01-11T02:12:41;101627.80;;;-4.74;0.00
60611;BME280;46439;51.164;13.572;2024-01-11T02:15:10;101631.15;;;-4.67;0.00
60611;BME280;46439;51.164;13.572;2024-01-11T02:17:40;101636.80;;;-4.62;0.00
60611;BME280;46439;51.164;13.572;2024-01-11T02:20:11;101642.13;;;-4.57;0.00
60611;BME280;46439;51.164;13.572;2024-01-11T02:22:42;101639.63;;;-4.55;0.00
60611;BME280;46439;51.164;13.572;2024-01-11T02:25:10;101641.70;;;-4.55;0.00
60611;BME280;46439;51.164;13.572;2024-01-11T02:27:49;101636.02;;;-4.52;0.00
60611;BME280;46439;51.164;13.572;2024-01-11T02:30:18;101638.34;;;-4.47;0.00
60611;BME280;46439;51.164;13.572;2024-01-11T02:32:47;101648.46;;;-4.43;0.00
60611;BME280;46439;51.164;13.572;2024-01-11T02:35:16;101646.18;;;-4.45;0.00
60611;BME280;46439;51.164;13.572;2024-01-11T02:37:46;101650.98;;;-4.47;0.00
60611;BME280;46439;51.164;13.572;2024-01-11T02:40:15;101653.05;;;-4.52;0.00
60611;BME280;46439;51.164;13.572;2024-01-11T02:42:43;101652.45;;;-4.49;0.00
60611;BME280;46439;51.164;13.572;2024-01-11T02:45:12;101658.67;;;-4.52;0.00
60611;BME280;46439;51.164;13.572;2024-01-11T02:47:40;101661.38;;;-4.61;0.00
60611;BME280;46439;51.164;13.572;2024-01-11T02:50:09;101663.80;;;-4.74;0.00
60611;BME280;46439;51.164;13.572;2024-01-11T02:52:39;101664.86;;;-4.95;0.00
60611;BME280;46439;51.164;13.572;2024-01-11T02:55:08;101659.88;;;-5.07;0.00
60611;BME280;46439;51.164;13.572;2024-01-11T02:57:37;101661.42;;;-5.06;0.00
60611;BME280;46439;51.164;13.572;2024-01-11T03:00:07;101654.24;;;-5.06;0.00
60611;BME280;46439;51.164;13.572;2024-01-11T03:02:36;101646.55;;;-5.00;0.00
60611;BME280;46439;51.164;13.572;2024-01-11T03:05:05;101643.88;;;-4.91;0.00
60611;BME280;46439;51.164;13.572;2024-01-11T03:07:33;101643.61;;;-4.80;0.00
60611;BME280;46439;51.164;13.572;2024-01-11T03:10:02;101651.48;;;-4.72;0.00
60611;BME280;46439;51.164;13.572;2024-01-11T03:12:30;101652.80;;;-4.69;0.00
60611;BME280;46439;51.164;13.572;2024-01-11T03:14:58;101650.73;;;-4.71;0.00
60611;BME280;46439;51.164;13.572;2024-01-11T03:17:26;101648.00;;;-4.67;0.00
60611;BME280;46439;51.164;13.572;2024-01-11T03:19:54;101644.56;;;-4.63;0.00
60611;BME280;46439;51.164;13.572;2024-01-11T03:22:22;101636.39;;;-4.59;0.00
60611;BME280;46439;51.164;13.572;2024-01-11T03:24:50;101638.50;;;-4.53;0.00
60611;BME280;46439;51.164;13.572;2024-01-11T03:27:18;101638.36;;;-4.47;0.00
60611;BME280;46439;51.164;13.572;2024-01-11T03:29:46;101635.83;;;-4.45;0.00
60611;BME280;46439;51.164;13.572;2024-01-11T03:32:14;101624.44;;;-4.39;0.00
60611;BME280;46439;51.164;13.572;2024-01-11T03:34:43;101610.77;;;-4.34;0.00
60611;BME280;46439;51.164;13.572;2024-01-11T03:37:11;101605.61;;;-4.26;0.00
60611;BME280;46439;51.164;13.572;2024-01-11T03:39:39;101600.33;;;-4.14;0.00
60611;BME280;46439;51.164;13.572;2024-01-11T03:42:07;101599.89;;;-4.10;0.00
60611;BME280;46439;51.164;13.572;2024-01-11T03:44:37;101591.53;;;-4.07;0.00
60611;BME280;46439;51.164;13.572;2024-01-11T03:47:06;101588.30;;;-4.11;0.00
60611;BME280;46439;51.164;13.572;2024-01-11T03:49:34;101594.38;;;-4.20;0.00
60611;BME280;46439;51.164;13.572;2024-01-11T03:52:02;101584.89;;;-4.33;0.00
60611;BME280;46439;51.164;13.572;2024-01-11T03:54:30;101580.75;;;-4.36;0.00
60611;BME280;46439;51.164;13.572;2024-01-11T03:56:58;101580.06;;;-4.36;0.00
60611;BME280;46439;51.164;13.572;2024-01-11T03:59:26;101597.33;;;-4.50;0.00
60611;BME280;46439;51.164;13.572;2024-01-11T04:01:55;101605.80;;;-4.79;0.00
60611;BME280;46439;51.164;13.572;2024-01-11T04:04:23;101614.98;;;-5.08;0.00
60611;BME280;46439;51.164;13.572;2024-01-11T04:06:52;101612.73;;;-5.31;0.00
60611;BME280;46439;51.164;13.572;2024-01-11T04:09:20;101600.16;;;-5.34;0.00
60611;BME280;46439;51.164;13.572;2024-01-11T04:11:49;101589.61;;;-5.26;0.00
60611;BME280;46439;51.164;13.572;2024-01-11T04:14:17;101601.55;;;-5.19;0.00
60611;BME280;46439;51.164;13.572;2024-01-11T04:16:45;101616.75;;;-5.31;0.00
60611;BME280;46439;51.164;13.572;2024-01-11T04:19:13;101613.95;;;-5.38;0.00
60611;BME280;46439;51.164;13.572;2024-01-11T04:21:41;101628.92;;;-5.33;0.00
60611;BME280;46439;51.164;13.572;2024-01-11T04:24:09;101635.06;;;-5.34;0.00
60611;BME280;46439;51.164;13.572;2024-01-11T04:26:38;101643.36;;;-5.36;0.00
60611;BME280;46439;51.164;13.572;2024-01-11T04:29:06;101657.65;;;-5.47;0.00
60611;BME280;46439;51.164;13.572;2024-01-11T04:31:34;101655.82;;;-5.60;0.00
60611;BME280;46439;51.164;13.572;2024-01-11T04:34:02;101653.30;;;-5.56;0.00
60611;BME280;46439;51.164;13.572;2024-01-11T04:36:30;101650.45;;;-5.46;0.00
60611;BME280;46439;51.164;13.572;2024-01-11T04:38:58;101650.36;;;-5.35;0.00
60611;BME280;46439;51.164;13.572;2024-01-11T04:41:26;101654.56;;;-5.20;0.00
60611;BME280;46439;51.164;13.572;2024-01-11T04:43:54;101671.05;;;-5.19;0.00
60611;BME280;46439;51.164;13.572;2024-01-11T04:46:23;101666.66;;;-5.27;0.00
60611;BME280;46439;51.164;13.572;2024-01-11T04:48:51;101665.96;;;-5.27;0.00
60611;BME280;46439;51.164;13.572;2024-01-11T04:51:21;101652.85;;;-5.22;0.00
60611;BME280;46439;51.164;13.572;2024-01-11T04:53:50;101655.07;;;-5.11;0.00
60611;BME280;46439;51.164;13.572;2024-01-11T04:56:18;101655.33;;;-5.00;0.00
60611;BME280;46439;51.164;13.572;2024-01-11T04:58:47;101658.05;;;-4.89;0.00
60611;BME280;46439;51.164;13.572;2024-01-11T05:01:16;101650.52;;;-4.83;0.00
60611;BME280;46439;51.164;13.572;2024-01-11T05:03:45;101648.71;;;-4.81;0.00
60611;BME280;46439;51.164;13.572;2024-01-11T05:06:18;101641.20;;;-4.83;0.00
60611;BME280;46439;51.164;13.572;2024-01-11T05:08:47;101634.91;;;-4.84;0.00
60611;BME280;46439;51.164;13.572;2024-01-11T05:11:18;101629.20;;;-4.80;0.00
60611;BME280;46439;51.164;13.572;2024-01-11T05:13:46;101627.45;;;-4.74;0.00
60611;BME280;46439;51.164;13.572;2024-01-11T05:16:23;101626.06;;;-4.68;0.00
60611;BME280;46439;51.164;13.572;2024-01-11T05:18:52;101627.92;;;-4.65;0.00
60611;BME280;46439;51.164;13.572;2024-01-11T05:21:21;101636.08;;;-4.61;0.00
60611;BME280;46439;51.164;13.572;2024-01-11T05:23:49;101635.98;;;-4.64;0.00
60611;BME280;46439;51.164;13.572;2024-01-11T05:26:19;101629.34;;;-4.65;0.00
60611;BME280;46439;51.164;13.572;2024-01-11T05:28:48;101623.61;;;-4.62;0.00
60611;BME280;46439;51.164;13.572;2024-01-11T05:31:16;101625.17;;;-4.60;0.00
60611;BME280;46439;51.164;13.572;2024-01-11T05:33:45;101641.30;;;-4.66;0.00
60611;BME280;46439;51.164;13.572;2024-01-11T05:36:14;101635.52;;;-4.73;0.00
60611;BME280;46439;51.164;13.572;2024-01-11T05:38:42;101633.06;;;-4.80;0.00
60611;BME280;46439;51.164;13.572;2024-01-11T05:41:10;101637.66;;;-4.81;0.00
60611;BME280;46439;51.164;13.572;2024-01-11T05:43:41;101646.30;;;-4.97;0.00
60611;BME280;46439;51.164;13.572;2024-01-11T05:46:11;101641.35;;;-5.10;0.00
60611;BME280;46439;51.164;13.572;2024-01-11T05:48:39;101639.90;;;-5.08;0.00
60611;BME280;46439;51.164;13.572;2024-01-11T05:51:07;101644.87;;;-5.03;0.00
60611;BME280;46439;51.164;13.572;2024-01-11T05:53:35;101656.48;;;-5.04;0.00
60611;BME280;46439;51.164;13.572;2024-01-11T05:56:08;101653.36;;;-5.06;0.00
60611;BME280;46439;51.164;13.572;2024-01-11T05:58:37;101655.00;;;-5.01;0.00
60611;BME280;46439;51.164;13.572;2024-01-11T06:01:06;101656.36;;;-4.99;0.00
60611;BME280;46439;51.164;13.572;2024-01-11T06:03:34;101650.59;;;-5.00;0.00
60611;BME280;46439;51.164;13.572;2024-01-11T06:06:03;101652.63;;;-4.97;0.00
60611;BME280;46439;51.164;13.572;2024-01-11T06:08:31;101652.49;;;-4.92;0.00
60611;BME280;46439;51.164;13.572;2024-01-11T06:11:00;101655.55;;;-4.95;0.00
60611;BME280;46439;51.164;13.572;2024-01-11T06:13:28;101664.89;;;-4.96;0.00
60611;BME280;46439;51.164;13.572;2024-01-11T06:15:56;101660.61;;;-4.94;0.00
60611;BME280;46439;51.164;13.572;2024-01-11T06:18:24;101667.42;;;-4.99;0.00
60611;BME280;46439;51.164;13.572;2024-01-11T06:20:52;101666.10;;;-5.03;0.00
60611;BME280;46439;51.164;13.572;2024-01-11T06:23:20;101664.61;;;-5.06;0.00
60611;BME280;46439;51.164;13.572;2024-01-11T06:25:48;101672.83;;;-5.05;0.00
60611;BME280;46439;51.164;13.572;2024-01-11T06:28:16;101665.85;;;-4.99;0.00
60611;BME280;46439;51.164;13.572;2024-01-11T06:30:45;101657.19;;;-4.90;0.00
60611;BME280;46439;51.164;13.572;2024-01-11T06:33:13;101663.39;;;-4.78;0.00
60611;BME280;46439;51.164;13.572;2024-01-11T06:35:41;101656.51;;;-4.70;0.00
60611;BME280;46439;51.164;13.572;2024-01-11T06:38:09;101648.55;;;-4.60;0.00
60611;BME280;46439;51.164;13.572;2024-01-11T06:40:37;101643.05;;;-4.52;0.00
60611;BME280;46439;51.164;13.572;2024-01-11T06:43:06;101643.96;;;-4.47;0.00
60611;BME280;46439;51.164;13.572;2024-01-11T06:45:34;101633.06;;;-4.47;0.00
60611;BME280;46439;51.164;13.572;2024-01-11T06:48:04;101614.81;;;-4.47;0.00
60611;BME280;46439;51.164;13.572;2024-01-11T06:50:32;101612.95;;;-4.44;0.00
60611;BME280;46439;51.164;13.572;2024-01-11T06:53:01;101622.73;;;-4.41;0.00
60611;BME280;46439;51.164;13.572;2024-01-11T06:55:29;101617.38;;;-4.45;0.00
60611;BME280;46439;51.164;13.572;2024-01-11T06:57:57;101620.36;;;-4.45;0.00
60611;BME280;46439;51.164;13.572;2024-01-11T07:00:27;101612.24;;;-4.43;0.00
60611;BME280;46439;51.164;13.572;2024-01-11T07:02:56;101608.41;;;-4.45;0.00
60611;BME280;46439;51.164;13.572;2024-01-11T07:05:24;101596.33;;;-4.40;0.00
60611;BME280;46439;51.164;13.572;2024-01-11T07:07:52;101604.83;;;-4.23;0.00
60611;BME280;46439;51.164;13.572;2024-01-11T07:10:20;101602.94;;;-4.18;0.00
60611;BME280;46439;51.164;13.572;2024-01-11T07:12:48;101594.17;;;-4.19;0.00
60611;BME280;46439;51.164;13.572;2024-01-11T07:15:16;101610.20;;;-4.21;0.00
60611;BME280;46439;51.164;13.572;2024-01-11T07:17:45;101608.43;;;-4.33;0.00
60611;BME280;46439;51.164;13.572;2024-01-11T07:20:13;101610.04;;;-4.40;0.00
60611;BME280;46439;51.164;13.572;2024-01-11T07:22:44;101610.80;;;-4.49;0.00
60611;BME280;46439;51.164;13.572;2024-01-11T07:25:12;101612.69;;;-4.54;0.00
60611;BME280;46439;51.164;13.572;2024-01-11T07:27:42;101611.81;;;-4.60;0.00
60611;BME280;46439;51.164;13.572;2024-01-11T07:30:12;101606.61;;;-4.56;0.00
60611;BME280;46439;51.164;13.572;2024-01-11T07:32:40;101609.23;;;-4.48;0.00
60611;BME280;46439;51.164;13.572;2024-01-11T07:35:09;101607.77;;;-4.47;0.00
60611;BME280;46439;51.164;13.572;2024-01-11T07:37:38;101599.46;;;-4.45;0.00
60611;BME280;46439;51.164;13.572;2024-01-11T07:40:08;101610.35;;;-4.38;0.00
60611;BME280;46439;51.164;13.572;2024-01-11T07:42:38;101615.48;;;-4.40;0.00
60611;BME280;46439;51.164;13.572;2024-01-11T07:45:09;101600.23;;;-4.41;0.00
60611;BME280;46439;51.164;13.572;2024-01-11T07:47:38;101591.78;;;-3.86;0.00
60611;BME280;46439;51.164;13.572;2024-01-11T07:50:08;101595.38;;;-2.95;0.00
60611;BME280;46439;51.164;13.572;2024-01-11T07:52:37;101607.04;;;-2.69;0.00
60611;BME280;46439;51.164;13.572;2024-01-11T07:55:08;101607.58;;;-2.69;0.00
60611;BME280;46439;51.164;13.572;2024-01-11T07:57:36;101612.37;;;-2.70;0.00
60611;BME280;46439;51.164;13.572;2024-01-11T08:00:06;101620.84;;;-2.76;0.00
60611;BME280;46439;51.164;13.572;2024-01-11T08:02:34;101636.89;;;-2.97;0.00
60611;BME280;46439;51.164;13.572;2024-01-11T08:05:03;101643.33;;;-3.17;0.00
60611;BME280;46439;51.164;13.572;2024-01-11T08:07:32;101646.19;;;-3.29;0.00
60611;BME280;46439;51.164;13.572;2024-01-11T08:10:01;101646.60;;;-3.37;0.00
60611;BME280;46439;51.164;13.572;2024-01-11T08:12:29;101630.58;;;-3.37;0.00
60611;BME280;46439;51.164;13.572;2024-01-11T08:14:58;101606.90;;;-3.34;0.00
60611;BME280;46439;51.164;13.572;2024-01-11T08:17:26;101604.45;;;-3.29;0.00
60611;BME280;46439;51.164;13.572;2024-01-11T08:19:54;101615.63;;;-3.26;0.00
60611;BME280;46439;51.164;13.572;2024-01-11T08:22:24;101623.80;;;-3.23;0.00
60611;BME280;46439;51.164;13.572;2024-01-11T08:24:52;101628.67;;;-3.21;0.00
60611;BME280;46439;51.164;13.572;2024-01-11T08:27:20;101623.92;;;-3.21;0.00
60611;BME280;46439;51.164;13.572;2024-01-11T08:29:48;101630.14;;;-3.23;0.00
60611;BME280;46439;51.164;13.572;2024-01-11T08:32:16;101626.23;;;-3.27;0.00
60611;BME280;46439;51.164;13.572;2024-01-11T08:34:44;101617.58;;;-3.32;0.00
60611;BME280;46439;51.164;13.572;2024-01-11T08:37:12;101632.64;;;-3.25;0.00
60611;BME280;46439;51.164;13.572;2024-01-11T08:39:41;101614.86;;;-2.92;0.00
60611;BME280;46439;51.164;13.572;2024-01-11T08:42:09;101613.03;;;-2.84;0.00
60611;BME280;46439;51.164;13.572;2024-01-11T08:44:37;101610.25;;;-2.85;0.00
60611;BME280;46439;51.164;13.572;2024-01-11T08:47:08;101624.23;;;-2.77;0.00
60611;BME280;46439;51.164;13.572;2024-01-11T08:49:39;101628.63;;;-2.72;0.00
60611;BME280;46439;51.164;13.572;2024-01-11T08:52:08;101632.94;;;-2.69;0.00
60611;BME280;46439;51.164;13.572;2024-01-11T08:54:37;101622.42;;;-2.71;0.00
60611;BME280;46439;51.164;13.572;2024-01-11T08:57:05;101620.14;;;-2.81;0.00
60611;BME280;46439;51.164;13.572;2024-01-11T08:59:33;101612.58;;;-2.86;0.00
60611;BME280;46439;51.164;13.572;2024-01-11T09:02:01;101616.15;;;-2.88;0.00
60611;BME280;46439;51.164;13.572;2024-01-11T09:04:30;101616.49;;;-2.88;0.00
60611;BME280;46439;51.164;13.572;2024-01-11T09:06:58;101613.58;;;-2.80;0.00
60611;BME280;46439;51.164;13.572;2024-01-11T09:09:26;101614.68;;;-2.81;0.00
60611;BME280;46439;51.164;13.572;2024-01-11T09:11:54;101619.76;;;-2.85;0.00
60611;BME280;46439;51.164;13.572;2024-01-11T09:14:22;101620.86;;;-2.77;0.00
60611;BME280;46439;51.164;13.572;2024-01-11T09:16:50;101619.64;;;-2.67;0.00
60611;BME280;46439;51.164;13.572;2024-01-11T09:19:18;101619.00;;;-2.63;0.00
60611;BME280;46439;51.164;13.572;2024-01-11T09:21:47;101625.47;;;-2.52;0.00
60611;BME280;46439;51.164;13.572;2024-01-11T09:24:15;101630.85;;;-2.49;0.00
60611;BME280;46439;51.164;13.572;2024-01-11T09:26:43;101627.31;;;-2.39;0.00
60611;BME280;46439;51.164;13.572;2024-01-11T09:29:11;101630.25;;;-2.33;0.00
60611;BME280;46439;51.164;13.572;2024-01-11T09:31:39;101629.38;;;-2.33;0.00
60611;BME280;46439;51.164;13.572;2024-01-11T09:34:07;101631.53;;;-2.33;0.00
60611;BME280;46439;51.164;13.572;2024-01-11T09:36:36;101635.67;;;-2.36;0.00
60611;BME280;46439;51.164;13.572;2024-01-11T09:39:09;101636.33;;;-2.39;0.00
60611;BME280;46439;51.164;13.572;2024-01-11T09:41:41;101646.94;;;-2.56;0.00
60611;BME280;46439;51.164;13.572;2024-01-11T09:44:11;101653.70;;;-2.62;0.00
60611;BME280;46439;51.164;13.572;2024-01-11T09:46:40;101644.61;;;-2.59;0.00
60611;BME280;46439;51.164;13.572;2024-01-11T09:49:09;101642.98;;;-2.39;0.00
60611;BME280;46439;51.164;13.572;2024-01-11T09:51:39;101638.92;;;-2.28;0.00
60611;BME280;46439;51.164;13.572;2024-01-11T09:54:07;101635.70;;;-2.32;0.00
60611;BME280;46439;51.164;13.572;2024-01-11T09:56:38;101634.82;;;-2.37;0.00
60611;BME280;46439;51.164;13.572;2024-01-11T09:59:07;101632.70;;;-2.37;0.00
60611;BME280;46439;51.164;13.572;2024-01-11T10:01:37;101622.08;;;-2.40;0.00
60611;BME280;46439;51.164;13.572;2024-01-11T10:04:06;101612.80;;;-2.42;0.00
60611;BME280;46439;51.164;13.572;2024-01-11T10:06:35;101606.67;;;-2.39;0.00
60611;BME280;46439;51.164;13.572;2024-01-11T10:09:06;101602.52;;;-2.36;0.00
60611;BME280;46439;51.164;13.572;2024-01-11T10:11:35;101602.85;;;-2.35;0.00
60611;BME280;46439;51.164;13.572;2024-01-11T10:14:03;101606.23;;;-2.36;0.00
60611;BME280;46439;51.164;13.572;2024-01-11T10:16:33;101601.91;;;-2.34;0.00
60611;BME280;46439;51.164;13.572;2024-01-11T10:19:01;101596.67;;;-2.35;0.00
60611;BME280;46439;51.164;13.572;2024-01-11T10:21:29;101588.79;;;-2.36;0.00
60611;BME280;46439;51.164;13.572;2024-01-11T10:23:58;101584.09;;;-2.33;0.00
60611;BME280;46439;51.164;13.572;2024-01-11T10:26:31;101584.95;;;-2.27;0.00
60611;BME280;46439;51.164;13.572;2024-01-11T10:29:01;101583.65;;;-2.16;0.00
60611;BME280;46439;51.164;13.572;2024-01-11T10:31:30;101574.59;;;-1.96;0.00
60611;BME280;46439;51.164;13.572;2024-01-11T10:33:59;101577.43;;;-1.83;0.00
60611;BME280;46439;51.164;13.572;2024-01-11T10:36:28;101578.94;;;-1.76;0.00
60611;BME280;46439;51.164;13.572;2024-01-11T10:38:58;101580.77;;;-1.64;0.00
60611;BME280;46439;51.164;13.572;2024-01-11T10:41:30;101571.16;;;-1.53;0.00
60611;BME280;46439;51.164;13.572;2024-01-11T10:44:01;101565.58;;;-1.55;0.00
60611;BME280;46439;51.164;13.572;2024-01-11T10:46:30;101568.59;;;-1.51;0.00
60611;BME280;46439;51.164;13.572;2024-01-11T10:49:00;101567.89;;;-1.46;0.00
60611;BME280;46439;51.164;13.572;2024-01-11T10:51:33;101570.45;;;-1.44;0.00
60611;BME280;46439;51.164;13.572;2024-01-11T10:54:02;101574.97;;;-1.42;0.00
60611;BME280;46439;51.164;13.572;2024-01-11T10:56:31;101574.22;;;-1.46;0.00
60611;BME280;46439;51.164;13.572;2024-01-11T10:59:01;101570.27;;;-1.44;0.00
60611;BME280;46439;51.164;13.572;2024-01-11T11:01:30;101573.43;;;-1.48;0.00
60611;BME280;46439;51.164;13.572;2024-01-11T11:03:59;101561.63;;;-1.48;0.00
60611;BME280;46439;51.164;13.572;2024-01-11T11:06:30;101551.05;;;-1.45;0.00
60611;BME280;46439;51.164;13.572;2024-01-11T11:08:59;101552.85;;;-1.41;0.00
60611;BME280;46439;51.164;13.572;2024-01-11T11:11:28;101560.45;;;-1.42;0.00
60611;BME280;46439;51.164;13.572;2024-01-11T11:14:00;101548.08;;;-1.28;0.00
60611;BME280;46439;51.164;13.572;2024-01-11T11:16:28;101546.48;;;-1.15;0.00
60611;BME280;46439;51.164;13.572;2024-01-11T11:18:57;101540.92;;;-1.05;0.00
60611;BME280;46439;51.164;13.572;2024-01-11T11:21:25;101542.45;;;-0.95;0.00
60611;BME280;46439;51.164;13.572;2024-01-11T11:23:56;101534.23;;;-0.88;0.00
60611;BME280;46439;51.164;13.572;2024-01-11T11:26:27;101530.55;;;-0.81;0.00
60611;BME280;46439;51.164;13.572;2024-01-11T11:28:56;101522.77;;;-0.73;0.00
60611;BME280;46439;51.164;13.572;2024-01-11T11:31:37;101508.98;;;-0.61;0.00
60611;BME280;46439;51.164;13.572;2024-01-11T11:34:07;101503.94;;;-0.36;0.00
60611;BME280;46439;51.164;13.572;2024-01-11T11:36:35;101499.13;;;-0.20;0.00
60611;BME280;46439;51.164;13.572;2024-01-11T11:39:04;101512.54;;;-0.07;0.00
60611;BME280;46439;51.164;13.572;2024-01-11T11:41:33;101509.89;;;0.04;0.00
60611;BME280;46439;51.164;13.572;2024-01-11T11:44:03;101511.02;;;0.14;0.00
60611;BME280;46439;51.164;13.572;2024-01-11T11:46:32;101506.45;;;0.24;0.00
60611;BME280;46439;51.164;13.572;2024-01-11T11:49:01;101501.05;;;0.33;0.00
60611;BME280;46439;51.164;13.572;2024-01-11T11:51:29;101505.85;;;0.40;0.00
60611;BME280;46439;51.164;13.572;2024-01-11T11:53:58;101513.90;;;0.46;0.00
60611;BME280;46439;51.164;13.572;2024-01-11T11:56:28;101515.48;;;0.50;0.00
60611;BME280;46439;51.164;13.572;2024-01-11T11:58:56;101513.79;;;0.52;0.00
60611;BME280;46439;51.164;13.572;2024-01-11T12:01:24;101505.86;;;0.51;0.00
60611;BME280;46439;51.164;13.572;2024-01-11T12:03:53;101501.63;;;0.54;0.00
60611;BME280;46439;51.164;13.572;2024-01-11T12:06:22;101503.48;;;0.52;0.00
60611;BME280;46439;51.164;13.572;2024-01-11T12:08:54;101499.05;;;0.49;0.00
60611;BME280;46439;51.164;13.572;2024-01-11T12:11:22;101498.01;;;0.48;0.00
60611;BME280;46439;51.164;13.572;2024-01-11T12:13:52;101496.46;;;0.48;0.00
60611;BME280;46439;51.164;13.572;2024-01-11T12:16:21;101494.65;;;0.45;0.00
60611;BME280;46439;51.164;13.572;2024-01-11T12:18:51;101493.81;;;0.44;0.00
60611;BME280;46439;51.164;13.572;2024-01-11T12:21:20;101483.98;;;0.45;0.00
60611;BME280;46439;51.164;13.572;2024-01-11T12:23:48;101473.47;;;0.50;0.00
60611;BME280;46439;51.164;13.572;2024-01-11T12:26:16;101468.33;;;0.54;0.00
60611;BME280;46439;51.164;13.572;2024-01-11T12:28:49;101469.30;;;0.56;0.00
60611;BME280;46439;51.164;13.572;2024-01-11T12:31:18;101469.25;;;0.60;0.00
60611;BME280;46439;51.164;13.572;2024-01-11T12:33:48;101478.46;;;0.61;0.00
60611;BME280;46439;51.164;13.572;2024-01-11T12:36:17;101472.01;;;0.51;0.00
60611;BME280;46439;51.164;13.572;2024-01-11T12:38:48;101473.77;;;0.40;0.00
60611;BME280;46439;51.164;13.572;2024-01-11T12:41:17;101466.16;;;0.33;0.00
60611;BME280;46439;51.164;13.572;2024-01-11T12:43:45;101461.83;;;0.32;0.00
60611;BME280;46439;51.164;13.572;2024-01-11T12:46:13;101458.52;;;0.31;0.00
60611;BME280;46439;51.164;13.572;2024-01-11T12:48:42;101459.52;;;0.32;0.00
60611;BME280;46439;51.164;13.572;2024-01-11T12:51:10;101456.13;;;0.32;0.00
60611;BME280;46439;51.164;13.572;2024-01-11T12:53:39;101450.87;;;0.45;0.00
60611;BME280;46439;51.164;13.572;2024-01-11T12:56:08;101448.85;;;0.54;0.00
60611;BME280;46439;51.164;13.572;2024-01-11T12:58:38;101455.04;;;0.61;0.00